createdAt,value
2024-01-24T00:00:17.201Z,99863.78
2024-01-24T00:01:18.971Z,99862.56
2024-01-24T00:02:20.622Z,99862.34
2024-01-24T00:03:22.601Z,99871.31
2024-01-24T00:04:24.433Z,99873.97
2024-01-24T00:05:26.362Z,99876.19
2024-01-24T00:06:28.155Z,99878.84
2024-01-24T00:07:29.863Z,99873.38
2024-01-24T00:08:31.433Z,99873.78
2024-01-24T00:09:34.537Z,99862.66
2024-01-24T00:10:36.267Z,99874.66
2024-01-24T00:11:37.808Z,99878.78
2024-01-24T00:12:39.577Z,99870.38
2024-01-24T00:13:41.244Z,99872.34
2024-01-24T00:14:43.029Z,99871.53
2024-01-24T00:15:44.617Z,99873.19
2024-01-24T00:16:46.254Z,99872.75
2024-01-24T00:17:47.914Z,99876.06
2024-01-24T00:18:49.674Z,99873.88
2024-01-24T00:19:51.227Z,99869.19
2024-01-24T00:20:54.365Z,99878.97
2024-01-24T00:21:56.230Z,99880.59
2024-01-24T00:22:57.755Z,99880.31
2024-01-24T00:24:00.099Z,99883.06
2024-01-24T00:25:01.728Z,99877.44
2024-01-24T00:26:03.266Z,99885.66
2024-01-24T00:27:05.392Z,99882.38
2024-01-24T00:28:07.541Z,99879.63
2024-01-24T00:29:09.242Z,99882.94
2024-01-24T00:30:11.250Z,99877.47
2024-01-24T00:31:12.798Z,99868.94
2024-01-24T00:32:14.400Z,99881.47
2024-01-24T00:33:17.026Z,99876.91
2024-01-24T00:34:18.756Z,99883.25
2024-01-24T00:35:20.484Z,99885.31
2024-01-24T00:36:23.316Z,99880.78
2024-01-24T00:37:24.909Z,99886.44
2024-01-24T00:38:26.894Z,99882.63
2024-01-24T00:39:28.596Z,99880.97
2024-01-24T00:40:30.205Z,99872.31
2024-01-24T00:41:31.753Z,99882.19
2024-01-24T00:42:33.555Z,99885.63
2024-01-24T00:43:35.418Z,99883.47
2024-01-24T00:44:40.403Z,99877.28
2024-01-24T00:45:42.072Z,99878.38
2024-01-24T00:49:35.587Z,99863.69
2024-01-24T00:50:37.176Z,99880.03
2024-01-24T00:51:38.801Z,99875.63
2024-01-24T00:52:40.389Z,99884.44
2024-01-24T00:53:44.550Z,99872.88
2024-01-24T00:54:47.004Z,99878.13
2024-01-24T00:55:48.960Z,99877.84
2024-01-24T00:56:50.496Z,99876.47
2024-01-24T00:57:52.049Z,99886.06
2024-01-24T00:58:53.597Z,99879.75
2024-01-24T00:59:55.158Z,99872.59
2024-01-24T01:00:56.852Z,99870.69
2024-01-24T01:01:58.460Z,99864.63
2024-01-24T01:03:00.025Z,99877.69
2024-01-24T01:04:01.757Z,99871.09
2024-01-24T01:05:05.417Z,99860.63
2024-01-24T01:06:07.382Z,99867.88
2024-01-24T01:07:09.147Z,99867.75
2024-01-24T01:08:10.747Z,99859.78
2024-01-24T01:09:12.845Z,99869.13
2024-01-24T01:10:14.443Z,99869.50
2024-01-24T01:11:16.008Z,99861.25
2024-01-24T01:12:19.268Z,99866.19
2024-01-24T01:13:21.321Z,99864.94
2024-01-24T01:14:22.869Z,99858.75
2024-01-24T01:15:27.314Z,99866.59
2024-01-24T01:16:28.908Z,99866.16
2024-01-24T01:17:30.464Z,99861.75
2024-01-24T01:18:32.143Z,99859.16
2024-01-24T01:19:33.755Z,99864.94
2024-01-24T01:20:35.320Z,99868.34
2024-01-24T01:21:36.924Z,99842.50
2024-01-24T01:22:39.147Z,99857.34
2024-01-24T01:23:41.153Z,99853.78
2024-01-24T01:24:42.748Z,99866.53
2024-01-24T01:25:44.439Z,99870.19
2024-01-24T01:26:45.976Z,99874.06
2024-01-24T01:27:47.652Z,99867.72
2024-01-24T01:28:49.670Z,99869.94
2024-01-24T01:29:53.708Z,99870.19
2024-01-24T01:30:55.348Z,99851.66
2024-01-24T01:31:56.954Z,99846.13
2024-01-24T01:32:58.663Z,99864.28
2024-01-24T01:34:02.289Z,99859.19
2024-01-24T01:35:04.073Z,99859.03
2024-01-24T01:36:14.257Z,99871.28
2024-01-24T01:37:24.893Z,99870.88
2024-01-24T01:38:26.430Z,99876.53
2024-01-24T01:39:29.672Z,99872.44
2024-01-24T01:40:33.407Z,99859.94
2024-01-24T01:41:37.819Z,99872.44
2024-01-24T01:42:46.117Z,99874.06
2024-01-24T01:43:47.735Z,99867.22
2024-01-24T01:44:49.310Z,99865.25
2024-01-24T01:45:58.589Z,99877.91
2024-01-24T01:47:00.382Z,99885.06
2024-01-24T01:48:03.074Z,99867.63
2024-01-24T01:49:05.678Z,99868.84
2024-01-24T01:50:11.669Z,99873.25
2024-01-24T01:51:14.103Z,99874.47
2024-01-24T01:52:17.080Z,99861.16
2024-01-24T01:53:18.720Z,99864.06
2024-01-24T01:54:20.914Z,99880.66
2024-01-24T01:55:23.044Z,99874.59
2024-01-24T01:56:26.244Z,99881.34
2024-01-24T01:57:27.825Z,99873.09
2024-01-24T01:58:29.640Z,99872.59
2024-01-24T01:59:31.823Z,99875.72
2024-01-24T02:00:34.235Z,99879.00
2024-01-24T02:01:37.153Z,99879.16
2024-01-24T02:02:38.816Z,99880.28
2024-01-24T02:03:40.601Z,99865.44
2024-01-24T02:04:42.442Z,99867.22
2024-01-24T02:05:45.824Z,99872.44
2024-01-24T02:06:47.551Z,99874.47
2024-01-24T02:07:49.466Z,99865.03
2024-01-24T02:08:51.308Z,99875.72
2024-01-24T02:09:53.673Z,99875.84
2024-01-24T02:10:56.690Z,99879.84
2024-01-24T02:11:58.413Z,99869.97
2024-01-24T02:13:00.442Z,99876.03
2024-01-24T02:14:02.152Z,99865.56
2024-01-24T02:15:04.062Z,99871.34
2024-01-24T02:16:06.139Z,99867.53
2024-01-24T02:17:07.704Z,99881.53
2024-01-24T02:18:09.346Z,99882.78
2024-01-24T02:19:12.112Z,99864.75
2024-01-24T02:20:15.016Z,99868.19
2024-01-24T02:21:16.969Z,99873.28
2024-01-24T02:22:19.059Z,99871.41
2024-01-24T02:23:23.717Z,99860.38
2024-01-24T02:24:25.612Z,99876.88
2024-01-24T02:25:27.337Z,99885.38
2024-01-24T02:26:28.960Z,99889.25
2024-01-24T02:27:30.733Z,99881.56
2024-01-24T02:28:32.397Z,99884.03
2024-01-24T02:29:33.961Z,99862.03
2024-01-24T02:30:35.530Z,99874.69
2024-01-24T02:31:37.128Z,99884.72
2024-01-24T02:32:40.164Z,99879.91
2024-01-24T02:33:41.827Z,99882.13
2024-01-24T02:34:43.503Z,99878.41
2024-01-24T02:35:45.077Z,99884.31
2024-01-24T02:36:46.724Z,99870.56
2024-01-24T02:37:48.302Z,99887.78
2024-01-24T02:38:49.935Z,99888.19
2024-01-24T02:39:51.927Z,99883.50
2024-01-24T02:40:53.551Z,99875.81
2024-01-24T02:41:55.072Z,99866.59
2024-01-24T02:42:57.057Z,99881.25
2024-01-24T02:43:58.658Z,99873.56
2024-01-24T02:45:00.210Z,99873.41
2024-01-24T02:46:02.321Z,99883.75
2024-01-24T02:47:04.025Z,99878.50
2024-01-24T02:48:06.155Z,99875.91
2024-01-24T02:49:07.844Z,99870.28
2024-01-24T02:50:12.644Z,99873.28
2024-01-24T02:51:28.328Z,99878.38
2024-01-24T02:52:29.940Z,99876.03
2024-01-24T02:53:31.486Z,99873.16
2024-01-24T02:54:33.179Z,99869.69
2024-01-24T02:55:34.711Z,99876.31
2024-01-24T02:56:37.267Z,99876.59
2024-01-24T02:57:38.947Z,99878.22
2024-01-24T02:58:40.547Z,99865.72
2024-01-24T02:59:42.102Z,99883.47
2024-01-24T03:00:43.762Z,99884.28
2024-01-24T03:01:45.584Z,99882.91
2024-01-24T03:02:47.450Z,99883.06
2024-01-24T03:03:49.160Z,99885.44
2024-01-24T03:04:50.912Z,99885.16
2024-01-24T03:05:53.646Z,99879.09
2024-01-24T03:06:57.129Z,99873.19
2024-01-24T03:07:59.628Z,99867.28
2024-01-24T03:09:01.167Z,99872.22
2024-01-24T03:10:03.732Z,99858.19
2024-01-24T03:11:05.427Z,99869.69
2024-01-24T03:12:07.355Z,99876.59
2024-01-24T03:13:09.118Z,99869.69
2024-01-24T03:14:10.697Z,99869.44
2024-01-24T03:15:12.338Z,99867.50
2024-01-24T03:16:14.232Z,99858.81
2024-01-24T03:17:15.775Z,99869.16
2024-01-24T03:18:18.254Z,99870.53
2024-01-24T03:19:20.096Z,99867.91
2024-01-24T03:20:22.209Z,99868.06
2024-01-24T03:21:26.669Z,99875.06
2024-01-24T03:22:28.302Z,99852.28
2024-01-24T03:23:29.839Z,99863.09
2024-01-24T03:24:31.415Z,99866.81
2024-01-24T03:25:33.011Z,99870.66
2024-01-24T03:26:34.613Z,99869.97
2024-01-24T03:27:36.201Z,99879.16
2024-01-24T03:28:37.970Z,99878.06
2024-01-24T03:29:42.080Z,99871.63
2024-01-24T03:30:43.685Z,99886.19
2024-01-24T03:31:45.346Z,99878.22
2024-01-24T03:32:47.079Z,99873.56
2024-01-24T03:33:48.708Z,99870.78
2024-01-24T03:34:57.784Z,99870.78
2024-01-24T03:35:59.373Z,99860.06
2024-01-24T03:37:00.923Z,99889.47
2024-01-24T03:38:02.875Z,99879.69
2024-01-24T03:39:10.668Z,99878.19
2024-01-24T03:40:12.400Z,99887.00
2024-01-24T03:41:14.011Z,99886.44
2024-01-24T03:42:15.619Z,99879.00
2024-01-24T03:43:17.186Z,99848.94
2024-01-24T03:44:18.687Z,99897.97
2024-01-24T03:45:20.257Z,99893.56
2024-01-24T03:46:21.854Z,99876.22
2024-01-24T03:47:23.469Z,99892.16
2024-01-24T03:48:25.187Z,99892.44
2024-01-24T03:49:26.830Z,99893.00
2024-01-24T03:50:28.439Z,99900.44
2024-01-24T03:51:29.992Z,99893.97
2024-01-24T03:52:31.554Z,99902.22
2024-01-24T03:53:33.324Z,99896.56
2024-01-24T03:54:34.894Z,99907.72
2024-01-24T03:55:36.415Z,99893.97
2024-01-24T03:56:37.942Z,99903.50
2024-01-24T03:57:41.027Z,99898.28
2024-01-24T03:58:42.619Z,99894.28
2024-01-24T03:59:44.140Z,99893.19
2024-01-24T04:00:45.866Z,99900.06
2024-01-24T04:01:47.798Z,99898.28
2024-01-24T04:02:49.378Z,99895.78
2024-01-24T04:03:51.138Z,99895.78
2024-01-24T04:04:52.821Z,99885.22
2024-01-24T04:05:54.402Z,99888.38
2024-01-24T04:06:56.130Z,99902.69
2024-01-24T04:07:57.829Z,99882.91
2024-01-24T04:08:59.548Z,99887.53
2024-01-24T04:10:01.192Z,99886.88
2024-01-24T04:11:02.824Z,99898.16
2024-01-24T04:12:04.730Z,99892.22
2024-01-24T04:13:06.250Z,99914.53
2024-01-24T04:14:09.069Z,99898.84
2024-01-24T04:15:10.682Z,99903.09
2024-01-24T04:16:12.348Z,99913.69
2024-01-24T04:17:13.962Z,99906.53
2024-01-24T04:18:15.627Z,99918.66
2024-01-24T04:19:17.392Z,99914.38
2024-01-24T04:20:18.973Z,99901.22
2024-01-24T04:21:20.557Z,99917.97
2024-01-24T04:22:22.239Z,99922.59
2024-01-24T04:23:23.802Z,99925.38
2024-01-24T04:24:25.356Z,99925.53
2024-01-24T04:25:26.876Z,99929.13
2024-01-24T04:26:28.431Z,99926.50
2024-01-24T04:27:30.074Z,99925.22
2024-01-24T04:28:32.600Z,99931.00
2024-01-24T04:29:34.342Z,99922.31
2024-01-24T04:30:35.971Z,99920.25
2024-01-24T04:31:37.828Z,99929.34
2024-01-24T04:32:39.415Z,99927.97
2024-01-24T04:33:41.185Z,99927.13
2024-01-24T04:34:42.825Z,99929.34
2024-01-24T04:35:45.366Z,99929.16
2024-01-24T04:36:47.041Z,99922.13
2024-01-24T04:37:48.571Z,99919.53
2024-01-24T04:38:50.211Z,99920.81
2024-01-24T04:39:53.099Z,99927.38
2024-01-24T04:40:54.798Z,99926.53
2024-01-24T04:42:05.135Z,99929.44
2024-01-24T04:43:10.614Z,99927.22
2024-01-24T04:44:12.180Z,99923.50
2024-01-24T04:45:16.328Z,99922.28
2024-01-24T04:46:18.032Z,99922.97
2024-01-24T04:47:19.731Z,99925.31
2024-01-24T04:48:21.384Z,99929.47
2024-01-24T04:49:31.161Z,99921.22
2024-01-24T04:50:41.936Z,99918.88
2024-01-24T04:51:44.021Z,99916.41
2024-01-24T04:52:45.607Z,99921.22
2024-01-24T04:53:47.180Z,99938.28
2024-01-24T04:54:48.915Z,99920.69
2024-01-24T04:55:51.343Z,99928.25
2024-01-24T04:56:52.938Z,99930.84
2024-01-24T04:57:54.620Z,99929.22
2024-01-24T04:58:56.172Z,99919.75
2024-01-24T04:59:59.212Z,99927.56
2024-01-24T05:01:01.801Z,99920.31
2024-01-24T05:02:07.207Z,99910.94
2024-01-24T05:03:08.772Z,99935.13
2024-01-24T05:04:10.883Z,99932.94
2024-01-24T05:05:12.858Z,99935.03
2024-01-24T05:06:14.655Z,99940.91
2024-01-24T05:07:16.439Z,99944.22
2024-01-24T05:08:18.279Z,99945.91
2024-01-24T05:09:19.846Z,99947.56
2024-01-24T05:10:21.525Z,99944.13
2024-01-24T05:11:23.132Z,99951.69
2024-01-24T05:12:24.702Z,99906.75
2024-01-24T05:13:26.234Z,99929.66
2024-01-24T05:14:27.772Z,99929.16
2024-01-24T05:15:29.387Z,99941.22
2024-01-24T05:16:31.112Z,99926.41
2024-01-24T05:17:32.917Z,99933.56
2024-01-24T05:18:35.033Z,99929.44
2024-01-24T05:19:36.824Z,99943.72
2024-01-24T05:20:38.656Z,99945.13
2024-01-24T05:21:43.648Z,99958.06
2024-01-24T05:22:45.335Z,99934.69
2024-01-24T05:23:47.739Z,99947.19
2024-01-24T05:24:49.390Z,99936.03
2024-01-24T05:25:51.682Z,99935.34
2024-01-24T05:26:53.861Z,99945.66
2024-01-24T05:27:55.518Z,99953.91
2024-01-24T05:28:57.073Z,99956.78
2024-01-24T05:29:59.679Z,99945.53
2024-01-24T05:31:01.307Z,99956.41
2024-01-24T05:32:02.926Z,99947.47
2024-01-24T05:33:04.955Z,99943.19
2024-01-24T05:34:06.707Z,99945.53
2024-01-24T05:35:08.425Z,99959.28
2024-01-24T05:36:11.010Z,99954.75
2024-01-24T05:37:12.636Z,99949.78
2024-01-24T05:38:14.198Z,99969.34
2024-01-24T05:39:16.916Z,99959.56
2024-01-24T05:40:18.608Z,99966.84
2024-01-24T05:41:24.142Z,99966.03
2024-01-24T05:42:25.754Z,99970.81
2024-01-24T05:43:27.356Z,99966.72
2024-01-24T05:44:28.892Z,99950.66
2024-01-24T05:45:30.513Z,99968.38
2024-01-24T05:46:32.173Z,99961.34
2024-01-24T05:47:33.901Z,99973.44
2024-01-24T05:48:35.650Z,99976.75
2024-01-24T05:49:40.566Z,99970.16
2024-01-24T05:50:42.281Z,99950.91
2024-01-24T05:51:43.928Z,99960.34
2024-01-24T05:52:45.944Z,99962.97
2024-01-24T05:53:47.500Z,99966.41
2024-01-24T05:54:49.207Z,99956.78
2024-01-24T05:55:50.906Z,99958.75
2024-01-24T05:56:52.496Z,99963.97
2024-01-24T05:57:54.211Z,99971.81
2024-01-24T05:58:56.024Z,99973.44
2024-01-24T05:59:57.651Z,99961.19
2024-01-24T06:00:59.401Z,99963.38
2024-01-24T06:02:01.168Z,99970.97
2024-01-24T06:03:02.917Z,99959.41
2024-01-24T06:04:04.779Z,99964.75
2024-01-24T06:05:07.079Z,99970.00
2024-01-24T06:06:08.990Z,99962.44
2024-01-24T06:07:11.109Z,99970.00
2024-01-24T06:08:12.789Z,99964.63
2024-01-24T06:09:14.409Z,99960.78
2024-01-24T06:10:16.558Z,99969.03
2024-01-24T06:11:18.880Z,99962.16
2024-01-24T06:12:20.548Z,99953.88
2024-01-24T06:13:22.270Z,99953.88
2024-01-24T06:14:23.858Z,99963.50
2024-01-24T06:15:25.451Z,99972.03
2024-01-24T06:16:27.014Z,99971.75
2024-01-24T06:17:28.589Z,99978.63
2024-01-24T06:18:30.734Z,99973.00
2024-01-24T06:19:32.437Z,99986.63
2024-01-24T06:20:34.071Z,99974.78
2024-01-24T06:21:35.661Z,99978.50
2024-01-24T06:22:37.215Z,99980.97
2024-01-24T06:23:38.874Z,99967.34
2024-01-24T06:24:41.232Z,99980.28
2024-01-24T06:25:43.473Z,99969.97
2024-01-24T06:26:46.569Z,99981.78
2024-01-24T06:27:48.193Z,99979.69
2024-01-24T06:28:49.793Z,99988.91
2024-01-24T06:30:17.321Z,99989.59
2024-01-24T06:31:15.890Z,99989.88
2024-01-24T06:32:17.539Z,99997.03
2024-01-24T06:33:19.171Z,99993.47
2024-01-24T06:34:20.851Z,99995.66
2024-01-24T06:35:22.897Z,99984.66
2024-01-24T06:36:24.666Z,99999.78
2024-01-24T06:37:26.256Z,99995.38
2024-01-24T06:38:27.772Z,100005.25
2024-01-24T06:39:29.361Z,100009.41
2024-01-24T06:40:31.387Z,100006.63
2024-01-24T06:41:34.033Z,100008.28
2024-01-24T06:42:35.613Z,100010.78
2024-01-24T06:43:41.198Z,100001.94
2024-01-24T06:44:43.410Z,100000.66
2024-01-24T06:45:46.554Z,100001.50
2024-01-24T06:46:48.256Z,99997.09
2024-01-24T06:47:50.033Z,99996.94
2024-01-24T06:48:51.966Z,99998.59
2024-01-24T06:49:53.555Z,99990.59
2024-01-24T06:50:55.662Z,99991.94
2024-01-24T06:51:57.378Z,99986.88
2024-01-24T06:52:59.787Z,99975.19
2024-01-24T06:54:01.457Z,99990.47
2024-01-24T06:55:03.148Z,99981.09
2024-01-24T06:56:04.988Z,99991.09
2024-01-24T06:57:06.593Z,99973.78
2024-01-24T06:58:08.613Z,99965.78
2024-01-24T06:59:10.127Z,99972.09
2024-01-24T07:00:12.114Z,99977.72
2024-01-24T07:01:13.822Z,99947.34
2024-01-24T07:02:15.451Z,99982.50
2024-01-24T07:03:19.464Z,99972.09
2024-01-24T07:04:22.918Z,99980.47
2024-01-24T07:05:24.541Z,99961.00
2024-01-24T07:06:26.264Z,99989.09
2024-01-24T07:07:27.892Z,99983.03
2024-01-24T07:08:29.539Z,99981.31
2024-01-24T07:09:31.211Z,99982.16
2024-01-24T07:10:32.841Z,99989.03
2024-01-24T07:11:34.401Z,99979.94
2024-01-24T07:12:36.008Z,99984.06
2024-01-24T07:13:38.198Z,99986.34
2024-01-24T07:14:39.728Z,99985.09
2024-01-24T07:15:41.391Z,99982.09
2024-01-24T07:16:45.276Z,99992.81
2024-01-24T07:17:47.462Z,99985.09
2024-01-24T07:18:49.261Z,99998.81
2024-01-24T07:19:52.553Z,100001.06
2024-01-24T07:20:54.450Z,99984.22
2024-01-24T07:21:56.126Z,99994.06
2024-01-24T07:22:57.782Z,99988.22
2024-01-24T07:23:59.412Z,100001.00
2024-01-24T07:25:01.129Z,99999.44
2024-01-24T07:26:04.086Z,100003.06
2024-01-24T07:27:05.705Z,99989.91
2024-01-24T07:28:07.811Z,99996.75
2024-01-24T07:29:10.672Z,99999.59
2024-01-24T07:30:12.583Z,100010.88
2024-01-24T07:31:14.152Z,100014.84
2024-01-24T07:32:16.426Z,100002.38
2024-01-24T07:33:18.126Z,100007.53
2024-01-24T07:34:20.200Z,100014.97
2024-01-24T07:35:21.806Z,100005.44
2024-01-24T07:36:23.709Z,100022.91
2024-01-24T07:37:26.168Z,100018.59
2024-01-24T07:38:27.752Z,100012.00
2024-01-24T07:39:29.999Z,100017.06
2024-01-24T07:40:31.640Z,100019.97
2024-01-24T07:41:33.632Z,100023.41
2024-01-24T07:42:35.255Z,99991.81
2024-01-24T07:43:36.991Z,100032.19
2024-01-24T07:44:38.806Z,100026.84
2024-01-24T07:45:40.537Z,100025.47
2024-01-24T07:46:44.133Z,100018.38
2024-01-24T07:47:46.349Z,100008.84
2024-01-24T07:48:48.106Z,100035.22
2024-01-24T07:49:50.047Z,100018.88
2024-01-24T07:50:53.201Z,100024.16
2024-01-24T07:51:55.843Z,100026.19
2024-01-24T07:52:58.404Z,100013.25
2024-01-24T07:54:00.385Z,99998.56
2024-01-24T07:55:02.127Z,100021.91
2024-01-24T07:56:11.366Z,100016.81
2024-01-24T07:57:21.529Z,100026.47
2024-01-24T07:58:24.095Z,100016.00
2024-01-24T07:59:25.857Z,100022.09
2024-01-24T08:00:27.506Z,100017.63
2024-01-24T08:01:29.202Z,100031.91
2024-01-24T08:02:30.751Z,100019.06
2024-01-24T08:03:32.533Z,100025.41
2024-01-24T08:04:34.229Z,100020.97
2024-01-24T08:05:36.504Z,100029.19
2024-01-24T08:06:38.993Z,100027.56
2024-01-24T08:07:42.343Z,100026.47
2024-01-24T08:08:45.096Z,100019.44
2024-01-24T08:09:47.078Z,100022.41
2024-01-24T08:10:48.975Z,100023.34
2024-01-24T08:11:50.793Z,100025.47
2024-01-24T08:12:52.623Z,100027.00
2024-01-24T08:13:54.456Z,100032.84
2024-01-24T08:14:56.129Z,100030.00
2024-01-24T08:15:58.880Z,100042.88
2024-01-24T08:17:05.467Z,100040.28
2024-01-24T08:18:09.003Z,100049.13
2024-01-24T08:19:10.724Z,100043.44
2024-01-24T08:20:12.736Z,100035.88
2024-01-24T08:21:14.942Z,100039.47
2024-01-24T08:22:16.646Z,100036.97
2024-01-24T08:23:18.452Z,100033.69
2024-01-24T08:24:20.315Z,100030.94
2024-01-24T08:25:23.514Z,100034.00
2024-01-24T08:26:25.169Z,100032.44
2024-01-24T08:27:26.960Z,100039.69
2024-01-24T08:28:28.674Z,100044.84
2024-01-24T08:29:36.748Z,100032.00
2024-01-24T08:30:39.727Z,100030.16
2024-01-24T08:31:41.316Z,100014.81
2024-01-24T08:32:43.417Z,100034.97
2024-01-24T08:33:47.781Z,100048.81
2024-01-24T08:34:50.763Z,100042.31
2024-01-24T08:35:52.427Z,100049.06
2024-01-24T08:36:54.096Z,100046.13
2024-01-24T08:37:55.740Z,100043.06
2024-01-24T08:38:57.359Z,100037.09
2024-01-24T08:39:59.071Z,100051.66
2024-01-24T08:41:00.710Z,100050.28
2024-01-24T08:42:04.178Z,100043.56
2024-01-24T08:43:06.182Z,100059.16
2024-01-24T08:44:07.949Z,100048.13
2024-01-24T08:45:10.399Z,100034.66
2024-01-24T08:46:12.096Z,100044.63
2024-01-24T08:47:13.677Z,100058.28
2024-01-24T08:48:15.598Z,100049.28
2024-01-24T08:49:17.445Z,100050.06
2024-01-24T08:50:19.298Z,100049.06
2024-01-24T08:51:22.444Z,100031.03
2024-01-24T08:52:24.980Z,100039.66
2024-01-24T08:53:27.242Z,100047.91
2024-01-24T08:54:28.906Z,100046.75
2024-01-24T08:55:32.534Z,100055.50
2024-01-24T08:56:34.217Z,100055.72
2024-01-24T08:57:35.951Z,100041.97
2024-01-24T08:58:38.087Z,100051.16
2024-01-24T08:59:39.907Z,100047.28
2024-01-24T09:00:41.640Z,100050.34
2024-01-24T09:01:44.050Z,100055.09
2024-01-24T09:02:45.935Z,100047.53
2024-01-24T09:03:49.599Z,100048.59
2024-01-24T09:04:53.635Z,100050.03
2024-01-24T09:05:55.647Z,100050.13
2024-01-24T09:06:57.735Z,100056.94
2024-01-24T09:07:59.323Z,100050.09
2024-01-24T09:09:00.967Z,100042.22
2024-01-24T09:10:08.039Z,100039.56
2024-01-24T09:11:12.352Z,100045.28
2024-01-24T09:12:15.369Z,100048.31
2024-01-24T09:13:21.763Z,100041.06
2024-01-24T09:14:24.445Z,100043.28
2024-01-24T09:15:26.399Z,100043.09
2024-01-24T09:16:28.133Z,100041.28
2024-01-24T09:17:29.792Z,100029.00
2024-01-24T09:18:31.936Z,100023.84
2024-01-24T09:19:36.787Z,100022.66
2024-01-24T09:20:38.400Z,100025.94
2024-01-24T09:21:40.860Z,100030.59
2024-01-24T09:22:42.578Z,100032.00
2024-01-24T09:23:44.257Z,100023.16
2024-01-24T09:24:46.064Z,100037.94
2024-01-24T09:25:47.633Z,100027.75
2024-01-24T09:26:49.198Z,100038.00
2024-01-24T09:27:53.177Z,100023.22
2024-01-24T09:28:54.827Z,100027.22
2024-01-24T09:29:56.388Z,100031.38
2024-01-24T09:31:00.629Z,100024.94
2024-01-24T09:32:02.268Z,100020.00
2024-01-24T09:33:05.190Z,100017.25
2024-01-24T09:34:07.292Z,100019.53
2024-01-24T09:35:09.890Z,100016.63
2024-01-24T09:36:11.580Z,100018.44
2024-01-24T09:37:13.316Z,100027.50
2024-01-24T09:38:14.863Z,100012.44
2024-01-24T09:39:16.500Z,100026.22
2024-01-24T09:40:18.544Z,100018.66
2024-01-24T09:41:22.824Z,100018.16
2024-01-24T09:42:27.757Z,100025.25
2024-01-24T09:43:30.968Z,100023.72
2024-01-24T09:44:34.418Z,100026.69
2024-01-24T09:45:41.868Z,100025.31
2024-01-24T09:46:43.641Z,100029.53
2024-01-24T09:47:48.396Z,100033.19
2024-01-24T09:48:50.473Z,100017.28
2024-01-24T09:49:52.522Z,100019.78
2024-01-24T09:50:54.269Z,100019.81
2024-01-24T09:51:56.470Z,100024.91
2024-01-24T09:52:59.868Z,100016.94
2024-01-24T09:54:03.519Z,100021.22
2024-01-24T09:55:07.494Z,100027.63
2024-01-24T09:56:09.612Z,100020.28
2024-01-24T09:57:11.882Z,100018.09
2024-01-24T09:58:16.210Z,100026.44
2024-01-24T09:59:19.682Z,100013.97
2024-01-24T10:00:21.471Z,100023.00
2024-01-24T10:01:24.641Z,100013.16
2024-01-24T10:02:29.515Z,100010.72
2024-01-24T10:03:34.894Z,100017.03
2024-01-24T10:04:39.162Z,100009.06
2024-01-24T10:05:43.685Z,100006.59
2024-01-24T10:06:46.820Z,99998.63
2024-01-24T10:07:48.491Z,99998.63
2024-01-24T10:08:50.268Z,99992.88
2024-01-24T10:10:11.190Z,99994.69
2024-01-24T10:11:12.904Z,99978.19
2024-01-24T10:12:14.681Z,99984.34
2024-01-24T10:13:16.289Z,99986.00
2024-01-24T10:14:19.568Z,99982.09
2024-01-24T10:15:22.649Z,99980.66
2024-01-24T10:16:25.880Z,99980.22
2024-01-24T10:17:27.823Z,99979.41
2024-01-24T10:18:30.008Z,99977.72
2024-01-24T10:19:31.722Z,99979.75
2024-01-24T10:20:33.471Z,99967.91
2024-01-24T10:21:35.290Z,99975.72
2024-01-24T10:22:37.318Z,99970.50
2024-01-24T10:23:40.892Z,99962.06
2024-01-24T10:24:42.541Z,99965.75
2024-01-24T10:25:44.164Z,99972.13
2024-01-24T10:26:46.050Z,99964.91
2024-01-24T10:27:47.661Z,99970.22
2024-01-24T10:28:50.397Z,99965.25
2024-01-24T10:29:55.518Z,99961.97
2024-01-24T10:30:57.393Z,99962.78
2024-01-24T10:32:00.494Z,99957.25
2024-01-24T10:33:04.118Z,99959.66
2024-01-24T10:34:07.331Z,99940.69
2024-01-24T10:35:09.914Z,99937.94
2024-01-24T10:36:21.374Z,99933.63
2024-01-24T10:37:28.841Z,99937.94
2024-01-24T10:38:35.281Z,99939.16
2024-01-24T10:39:39.443Z,99945.44
2024-01-24T10:40:41.932Z,99938.97
2024-01-24T10:41:46.280Z,99943.88
2024-01-24T10:42:54.748Z,99938.22
2024-01-24T10:43:58.275Z,99948.47
2024-01-24T10:45:04.601Z,99950.31
2024-01-24T10:46:08.910Z,99933.59
2024-01-24T10:47:11.235Z,99944.63
2024-01-24T10:48:13.253Z,99937.09
2024-01-24T10:49:16.433Z,99936.97
2024-01-24T10:50:19.873Z,99933.06
2024-01-24T10:51:22.323Z,99931.69
2024-01-24T10:52:26.813Z,99935.22
2024-01-24T10:53:31.238Z,99936.69
2024-01-24T10:54:36.085Z,99921.38
2024-01-24T10:55:39.459Z,99926.06
2024-01-24T10:56:45.070Z,99925.06
2024-01-24T10:57:48.313Z,99923.66
2024-01-24T10:58:51.375Z,99917.72
2024-01-24T10:59:55.194Z,99919.97
2024-01-24T11:00:57.457Z,99919.75
2024-01-24T11:01:59.142Z,99914.66
2024-01-24T11:03:01.335Z,99914.03
2024-01-24T11:04:08.789Z,99926.69
2024-01-24T11:05:23.213Z,99927.53
2024-01-24T11:06:28.563Z,99916.28
2024-01-24T11:07:39.008Z,99921.59
2024-01-24T11:08:52.355Z,99905.66
2024-01-24T11:10:32.257Z,99911.97
2024-01-24T11:11:36.040Z,99910.16
2024-01-24T11:12:37.749Z,99900.97
2024-01-24T11:13:39.733Z,99904.03
2024-01-24T11:14:46.332Z,99906.72
2024-01-24T11:15:48.280Z,99892.81
2024-01-24T11:16:49.868Z,99903.81
2024-01-24T11:18:21.683Z,99904.59
2024-01-24T11:19:25.200Z,99895.63
2024-01-24T11:20:27.146Z,99901.75
2024-01-24T11:21:30.510Z,99899.31
2024-01-24T11:22:33.207Z,99890.91
2024-01-24T11:23:47.517Z,99903.19
2024-01-24T11:24:49.733Z,99905.59
2024-01-24T11:25:52.104Z,99896.38
2024-01-24T11:26:55.843Z,99896.13
2024-01-24T11:28:01.336Z,99882.06
2024-01-24T11:29:16.065Z,99883.91
2024-01-24T11:30:39.017Z,99888.59
2024-01-24T11:31:42.200Z,99873.00
2024-01-24T11:32:47.150Z,99889.91
2024-01-24T11:34:10.302Z,99892.28
2024-01-24T11:35:28.757Z,99884.81
2024-01-24T11:36:30.885Z,99888.31
2024-01-24T11:37:34.793Z,99882.75
2024-01-24T11:38:37.204Z,99878.69
2024-01-24T11:39:40.727Z,99879.56
2024-01-24T11:40:44.705Z,99871.63
2024-01-24T11:41:46.407Z,99871.25
2024-01-24T11:42:57.775Z,99878.38
2024-01-24T11:43:59.563Z,99875.28
2024-01-24T11:45:14.893Z,99872.91
2024-01-24T11:46:16.634Z,99867.59
2024-01-24T11:47:18.536Z,99868.09
2024-01-24T11:48:20.589Z,99852.28
2024-01-24T11:49:22.928Z,99864.25
2024-01-24T11:50:25.187Z,99864.34
2024-01-24T11:51:26.840Z,99865.50
2024-01-24T11:52:28.468Z,99858.78
2024-01-24T11:53:30.885Z,99858.03
2024-01-24T11:54:32.575Z,99863.25
2024-01-24T11:55:34.209Z,99859.59
2024-01-24T11:56:37.532Z,99867.75
2024-01-24T11:57:39.470Z,99851.84
2024-01-24T11:58:41.299Z,99861.59
2024-01-24T11:59:42.921Z,99854.41
2024-01-24T12:00:45.407Z,99857.31
2024-01-24T12:01:47.471Z,99852.69
2024-01-24T12:02:50.947Z,99844.88
2024-01-24T12:03:52.845Z,99844.88
2024-01-24T12:04:54.629Z,99850.69
2024-01-24T12:05:56.512Z,99843.16
2024-01-24T12:06:58.323Z,99849.19
2024-01-24T12:08:00.984Z,99849.56
2024-01-24T12:09:02.760Z,99833.72
2024-01-24T12:10:05.872Z,99834.53
2024-01-24T12:11:10.321Z,99829.31
2024-01-24T12:12:13.292Z,99830.97
2024-01-24T12:13:15.946Z,99835.25
2024-01-24T12:14:18.357Z,99833.06